createdAt,value
2023-05-05T00:00:14.900Z,75.5129
2023-05-05T00:01:15.707Z,75.4166
2023-05-05T00:02:16.112Z,75.2274
2023-05-05T00:03:18.130Z,75.9529
2023-05-05T00:04:22.856Z,74.8646
2023-05-05T00:05:25.181Z,75.4007
2023-05-05T00:06:25.749Z,74.5288
2023-05-05T00:07:27.697Z,73.2011
2023-05-05T00:08:29.607Z,74.8278
2023-05-05T00:09:30.558Z,75.1475
2023-05-05T00:10:32.456Z,75.5412
2023-05-05T00:11:34.661Z,77.8299
2023-05-05T00:12:35.751Z,76.7109
2023-05-05T00:13:36.518Z,77.3750
2023-05-05T00:14:37.370Z,77.3085
2023-05-05T00:15:38.955Z,78.7580
2023-05-05T00:16:39.494Z,77.8712
2023-05-05T00:17:41.028Z,76.9576
2023-05-05T00:18:42.236Z,77.1957
2023-05-05T00:19:43.662Z,76.4460
2023-05-05T00:20:44.841Z,77.6018
2023-05-05T00:21:46.539Z,76.8658
2023-05-05T00:22:48.492Z,76.3302
2023-05-05T00:23:51.822Z,76.9711
2023-05-05T00:24:53.907Z,76.7199
2023-05-05T00:25:55.610Z,75.8723
2023-05-05T00:26:57.724Z,76.0460
2023-05-05T00:27:57.712Z,75.9940
2023-05-05T00:29:00.702Z,75.8008
2023-05-05T00:30:32.879Z,77.8088
2023-05-05T00:31:34.324Z,77.1408
2023-05-05T00:32:38.028Z,76.2312
2023-05-05T00:33:40.338Z,76.6799
2023-05-05T00:34:43.008Z,76.3583
2023-05-05T00:35:43.221Z,76.5849
2023-05-05T00:36:43.505Z,76.5434
2023-05-05T00:38:12.707Z,76.5868
2023-05-05T00:39:14.418Z,76.7528
2023-05-05T00:40:16.866Z,76.3066
2023-05-05T00:41:20.183Z,77.2490
2023-05-05T00:42:22.603Z,76.4439
2023-05-05T00:43:23.833Z,76.0668
2023-05-05T00:44:26.570Z,76.0668
2023-05-05T00:45:29.703Z,76.2244
2023-05-05T00:46:30.976Z,76.4281
2023-05-05T00:47:33.359Z,76.2394
2023-05-05T00:48:33.424Z,76.7108
2023-05-05T00:49:35.686Z,76.3180
2023-05-05T00:50:42.261Z,76.9812
2023-05-05T00:52:08.956Z,76.4403
2023-05-05T00:53:11.206Z,77.4934
2023-05-05T00:54:12.574Z,76.6652
2023-05-05T00:55:13.808Z,76.6606
2023-05-05T00:56:17.978Z,76.1811
2023-05-05T00:57:19.610Z,76.6704
2023-05-05T00:58:19.678Z,78.2926
2023-05-05T00:59:20.481Z,77.4546
2023-05-05T01:00:22.161Z,77.1831
2023-05-05T01:01:24.866Z,77.4046
2023-05-05T01:02:28.281Z,77.5471
2023-05-05T01:03:29.210Z,78.5255
2023-05-05T01:04:30.291Z,78.7958
2023-05-05T01:05:31.149Z,78.5339
2023-05-05T01:06:34.771Z,77.8947
2023-05-05T01:07:35.106Z,77.9394
2023-05-05T01:08:35.280Z,77.7578
2023-05-05T01:09:38.377Z,77.7303
2023-05-05T01:10:42.447Z,76.8340
2023-05-05T01:11:43.411Z,77.3171
2023-05-05T01:13:11.537Z,75.6308
2023-05-05T01:14:13.185Z,75.2095
2023-05-05T01:15:15.855Z,75.6144
2023-05-05T01:16:18.524Z,75.7465
2023-05-05T01:17:18.740Z,76.2028
2023-05-05T01:18:20.988Z,76.6115
2023-05-05T01:19:25.985Z,77.3192
2023-05-05T01:20:26.626Z,77.7920
2023-05-05T01:21:56.743Z,78.9802
2023-05-05T01:23:00.476Z,78.7355
2023-05-05T01:24:00.629Z,79.1240
2023-05-05T01:25:06.807Z,79.6441
2023-05-05T01:26:34.280Z,79.9812
2023-05-05T01:27:35.092Z,80.4640
2023-05-05T01:29:03.686Z,80.0352
2023-05-05T01:30:04.315Z,79.8574
2023-05-05T01:31:36.576Z,80.3614
2023-05-05T01:32:39.915Z,80.6003
2023-05-05T01:33:40.800Z,80.7917
2023-05-05T01:34:44.628Z,81.0636
2023-05-05T01:35:45.650Z,81.8607
2023-05-05T01:36:48.222Z,81.4078
2023-05-05T01:37:49.635Z,81.1377
2023-05-05T01:38:51.531Z,80.9765
2023-05-05T01:39:51.709Z,80.8119
2023-05-05T01:40:54.396Z,80.7791
2023-05-05T01:41:57.211Z,80.6004
2023-05-05T01:43:02.812Z,80.2583
2023-05-05T01:44:02.893Z,80.5944
2023-05-05T01:45:08.185Z,80.8351
2023-05-05T01:46:10.291Z,80.2235
2023-05-05T01:47:11.695Z,80.2064
2023-05-05T01:48:15.481Z,80.4388
2023-05-05T01:49:19.173Z,80.3710
2023-05-05T01:50:20.913Z,80.8546
2023-05-05T01:51:22.537Z,80.6622
2023-05-05T01:52:25.795Z,80.2060
2023-05-05T01:53:27.833Z,79.6624
2023-05-05T01:54:27.796Z,80.5883
2023-05-05T01:55:32.291Z,79.9381
2023-05-05T01:56:35.977Z,79.7638
2023-05-05T01:57:38.093Z,79.5904
2023-05-05T01:58:41.405Z,80.3603
2023-05-05T01:59:43.528Z,80.4870
2023-05-05T02:00:43.714Z,80.1938
2023-05-05T02:02:47.471Z,80.7261
2023-05-05T02:03:49.512Z,80.3189
2023-05-05T02:04:49.386Z,78.8842
2023-05-05T02:05:49.773Z,78.6550
2023-05-05T02:06:53.535Z,80.4263
2023-05-05T02:07:55.752Z,80.2778
2023-05-05T02:08:57.997Z,79.1596
2023-05-05T02:10:01.740Z,78.7407
2023-05-05T02:11:04.308Z,78.4133
2023-05-05T02:12:32.345Z,76.6106
2023-05-05T02:14:04.807Z,76.3932
2023-05-05T02:15:09.824Z,75.7217
2023-05-05T02:16:13.206Z,75.2548
2023-05-05T02:18:42.698Z,73.7453
2023-05-05T02:19:46.521Z,74.1700
2023-05-05T02:20:48.844Z,74.4043
2023-05-05T02:21:49.435Z,74.2230
2023-05-05T02:22:49.881Z,74.8437
2023-05-05T02:23:53.035Z,75.6167
2023-05-05T02:24:55.260Z,75.6692
2023-05-05T02:26:25.273Z,76.3517
2023-05-05T02:27:29.809Z,74.8116
2023-05-05T02:28:33.515Z,76.9577
2023-05-05T02:29:38.084Z,77.0932
2023-05-05T02:30:43.758Z,77.0243
2023-05-05T02:31:44.021Z,77.0590
2023-05-05T02:32:44.884Z,77.5986
2023-05-05T02:33:48.454Z,78.5454
2023-05-05T02:34:51.577Z,78.6849
2023-05-05T02:36:50.871Z,79.6743
2023-05-05T02:37:51.234Z,79.7326
2023-05-05T02:38:53.136Z,80.0068
2023-05-05T02:39:54.145Z,79.5931
2023-05-05T02:40:55.100Z,79.6263
2023-05-05T02:46:02.383Z,80.3417
2023-05-05T02:49:06.991Z,81.2692
2023-05-05T02:50:09.265Z,81.1343
2023-05-05T02:51:13.157Z,81.6894
2023-05-05T02:52:15.494Z,81.3194
2023-05-05T03:02:08.036Z,82.4686
2023-05-05T03:03:09.268Z,82.3479
2023-05-05T03:04:13.223Z,82.1775
2023-05-05T03:05:16.972Z,81.8182
2023-05-05T03:06:20.535Z,81.0793
2023-05-05T03:07:22.875Z,81.5515
2023-05-05T03:08:24.743Z,81.6166
2023-05-05T03:09:25.786Z,81.2933
2023-05-05T03:10:28.631Z,81.6412
2023-05-05T03:11:29.460Z,81.6783
2023-05-05T03:12:30.607Z,81.8691
2023-05-05T03:13:34.954Z,82.1654
2023-05-05T03:14:37.352Z,82.2303
2023-05-05T03:15:39.100Z,82.2809
2023-05-05T03:16:40.275Z,81.7591
2023-05-05T03:17:42.467Z,81.4904
2023-05-05T03:18:47.356Z,81.8091
2023-05-05T03:19:50.639Z,82.4527
2023-05-05T03:20:54.889Z,81.8724
2023-05-05T03:21:57.139Z,82.2632
2023-05-05T03:23:02.973Z,82.7187
2023-05-05T03:24:31.334Z,81.4329
2023-05-05T03:25:32.571Z,81.7094
2023-05-05T03:26:36.298Z,81.3576
2023-05-05T03:27:36.650Z,81.3111
2023-05-05T03:30:41.381Z,79.8771
2023-05-05T03:31:44.812Z,79.8434
2023-05-05T03:32:47.052Z,79.0456
2023-05-05T03:33:47.760Z,78.4225
2023-05-05T03:46:47.909Z,76.7946
2023-05-05T03:47:47.543Z,76.7529
2023-05-05T03:52:52.130Z,75.9085
2023-05-05T03:53:52.756Z,76.2790
2023-05-05T03:55:19.727Z,75.4875
2023-05-05T03:56:22.260Z,75.0061
2023-05-05T03:57:26.527Z,78.2745
2023-05-05T03:58:32.158Z,78.1250
2023-05-05T03:59:32.610Z,77.4515
2023-05-05T04:30:21.844Z,81.5362
2023-05-05T04:31:26.880Z,81.2751
2023-05-05T04:40:49.673Z,81.1755
2023-05-05T04:41:57.324Z,82.3137
2023-05-05T04:43:00.753Z,81.2940
2023-05-05T04:44:11.613Z,80.6844
2023-05-05T04:52:48.064Z,82.8197
2023-05-05T04:53:49.929Z,83.0056
2023-05-05T04:54:52.871Z,82.8838
2023-05-05T04:55:57.011Z,81.6927
2023-05-05T05:01:58.542Z,81.9238
2023-05-05T05:03:00.481Z,81.2937
2023-05-05T05:08:26.722Z,77.8610
2023-05-05T05:13:29.284Z,81.1572
2023-05-05T05:14:34.155Z,81.5881
2023-05-05T05:15:36.907Z,82.8027
2023-05-05T05:16:38.524Z,82.7402
2023-05-05T05:17:40.625Z,82.7626
2023-05-05T05:18:40.935Z,83.0322
2023-05-05T05:19:41.082Z,82.6631
2023-05-05T05:43:12.748Z,83.7434
2023-05-05T05:44:14.956Z,83.6035
2023-05-05T05:45:17.349Z,83.7985
2023-05-05T05:46:17.816Z,83.4057
2023-05-05T05:59:19.138Z,81.2729
2023-05-05T06:00:19.863Z,81.3984
2023-05-05T06:01:21.074Z,80.8254
2023-05-05T06:02:26.189Z,80.7337
2023-05-05T06:03:29.757Z,80.9221
2023-05-05T06:08:41.457Z,79.6966
2023-05-05T06:09:43.438Z,79.6376
2023-05-05T06:10:43.963Z,80.3076
2023-05-05T06:11:44.774Z,80.1619
2023-05-05T06:13:14.490Z,81.4642
2023-05-05T06:14:20.436Z,80.5489
2023-05-05T06:15:22.701Z,80.2823
2023-05-05T06:30:50.902Z,76.1129
2023-05-05T06:32:24.378Z,75.8977
2023-05-05T06:33:52.137Z,76.4655
2023-05-05T06:34:59.183Z,75.7281
2023-05-05T06:35:57.048Z,73.3676
2023-05-05T06:37:56.361Z,73.7063
2023-05-05T06:45:10.036Z,72.8325
2023-05-05T06:46:37.672Z,71.9910
2023-05-05T06:48:08.619Z,72.9024
2023-05-05T06:49:10.838Z,71.2304
2023-05-05T06:50:38.853Z,71.1878
2023-05-05T06:51:43.149Z,70.3400
2023-05-05T06:53:10.718Z,70.4379
2023-05-05T06:54:43.998Z,69.9151
2023-05-05T06:56:12.401Z,69.9594
2023-05-05T06:57:41.182Z,69.5313
2023-05-05T06:59:09.993Z,69.2244
2023-05-05T07:00:40.947Z,68.7932
2023-05-05T07:02:09.589Z,69.2978
2023-05-05T07:03:41.195Z,68.9808
2023-05-05T07:04:44.429Z,69.3249
2023-05-05T07:06:14.609Z,68.0630
2023-05-05T07:07:43.925Z,68.1731
2023-05-05T07:09:17.662Z,70.5568
2023-05-05T07:10:16.416Z,69.4550
2023-05-05T07:11:49.372Z,68.5186
2023-05-05T07:13:49.780Z,66.0068
2023-05-05T07:15:29.270Z,65.8765
2023-05-05T07:16:50.371Z,66.2951
2023-05-05T07:18:21.631Z,65.2463
2023-05-05T07:19:51.935Z,64.1537
2023-05-05T07:21:20.842Z,63.5768
2023-05-05T07:22:22.433Z,63.5275
2023-05-05T07:23:52.419Z,65.1834
2023-05-05T07:25:21.220Z,64.6403
2023-05-05T07:26:52.618Z,63.8574
2023-05-05T07:28:23.346Z,63.6910
2023-05-05T07:29:53.983Z,63.5673
2023-05-05T07:30:54.929Z,63.9353
2023-05-05T07:32:25.283Z,64.8656
2023-05-05T07:33:57.182Z,64.9169
2023-05-05T07:35:28.979Z,65.9426
2023-05-05T07:36:58.107Z,64.2942
2023-05-05T07:38:28.132Z,64.7125
2023-05-05T07:39:58.565Z,65.6480
2023-05-05T07:41:27.589Z,65.5116
2023-05-05T07:42:58.511Z,66.0859
2023-05-05T07:45:29.554Z,66.5874
2023-05-05T07:47:02.016Z,66.1456
2023-05-05T07:48:32.507Z,65.5472
2023-05-05T07:50:03.654Z,65.6407
2023-05-05T07:51:35.292Z,64.8698
2023-05-05T07:53:14.912Z,65.8373
2023-05-05T07:54:06.198Z,66.4277
2023-05-05T07:55:37.903Z,65.7430
2023-05-05T07:57:08.011Z,65.7637
2023-05-05T07:58:39.141Z,65.9532
2023-05-05T08:00:11.864Z,65.4040
2023-05-05T08:01:42.683Z,65.1615
2023-05-05T08:03:13.200Z,65.8745
2023-05-05T08:04:45.386Z,64.9626
2023-05-05T08:06:15.664Z,64.8078
2023-05-05T08:07:47.579Z,66.7584
2023-05-05T08:09:16.562Z,66.7464
2023-05-05T08:10:47.963Z,65.8738
2023-05-05T08:12:16.754Z,66.3349
2023-05-05T08:13:46.453Z,65.6076
2023-05-05T08:15:17.711Z,65.7527
2023-05-05T08:16:49.513Z,65.6287
2023-05-05T08:18:20.220Z,65.5065
2023-05-05T08:19:49.186Z,64.7972
2023-05-05T08:21:52.000Z,65.5338
2023-05-05T08:24:56.226Z,64.7017
2023-05-05T08:26:58.052Z,66.8021
2023-05-05T08:28:29.440Z,64.8623
2023-05-05T08:30:01.502Z,64.2829
2023-05-05T08:31:31.252Z,63.9119
2023-05-05T08:33:03.820Z,63.5920
2023-05-05T08:34:33.654Z,63.6363
2023-05-05T08:35:35.392Z,63.5532
2023-05-05T08:37:05.850Z,63.9600
2023-05-05T08:38:36.274Z,62.9708
2023-05-05T08:40:09.145Z,63.2565
2023-05-05T08:41:39.450Z,62.6822
2023-05-05T08:42:40.015Z,62.8522
2023-05-05T08:43:43.184Z,64.2606
2023-05-05T08:45:14.550Z,63.0532
2023-05-05T08:46:45.164Z,61.9628
2023-05-05T08:48:14.084Z,62.6207
2023-05-05T08:49:43.870Z,63.0760
2023-05-05T08:51:16.305Z,61.7855
2023-05-05T08:52:51.215Z,62.1535
2023-05-05T08:54:17.991Z,62.2781
2023-05-05T08:55:48.635Z,62.8415
2023-05-05T08:57:19.631Z,62.6587
2023-05-05T08:58:50.912Z,62.1178
2023-05-05T09:00:20.182Z,61.3855
2023-05-05T09:01:50.936Z,61.6794
2023-05-05T09:03:22.353Z,62.9290
2023-05-05T09:04:52.128Z,62.2671
2023-05-05T09:06:21.914Z,63.2100
2023-05-05T09:07:52.492Z,63.9106
2023-05-05T09:09:22.291Z,62.1367
2023-05-05T09:10:52.040Z,63.1882
2023-05-05T09:12:22.369Z,63.1259
2023-05-05T09:13:53.659Z,63.0088
2023-05-05T09:15:25.011Z,62.0913
2023-05-05T09:16:56.342Z,62.6510
2023-05-05T09:18:26.505Z,61.5488
2023-05-05T09:19:56.301Z,60.9446
2023-05-05T09:21:27.019Z,61.5293
2023-05-05T09:22:58.479Z,61.0062
2023-05-05T09:24:30.498Z,61.9715
2023-05-05T09:26:00.985Z,61.3126
2023-05-05T09:27:30.965Z,60.7212
2023-05-05T09:29:01.186Z,62.0672
2023-05-05T09:30:32.528Z,60.4813
2023-05-05T09:32:03.322Z,60.4924
2023-05-05T09:33:34.915Z,61.9530
2023-05-05T09:35:05.364Z,61.4657
2023-05-05T09:36:34.567Z,61.8083
2023-05-05T09:38:06.124Z,61.0625
2023-05-05T09:39:36.932Z,61.6409
2023-05-05T09:41:08.501Z,62.4476
2023-05-05T09:42:39.118Z,61.5144
2023-05-05T09:44:09.923Z,60.5159
2023-05-05T09:45:41.592Z,61.2245
2023-05-05T09:47:29.111Z,60.8711
2023-05-05T09:48:43.660Z,59.6836
2023-05-05T09:50:14.035Z,61.3726
2023-05-05T09:51:44.044Z,62.3156
2023-05-05T09:53:13.336Z,61.9092
2023-05-05T09:54:43.792Z,62.7775
2023-05-05T09:56:13.050Z,61.7892
2023-05-05T09:57:43.416Z,60.8047
2023-05-05T09:59:13.137Z,60.5840
2023-05-05T10:00:43.471Z,60.2883
2023-05-05T10:02:13.829Z,59.9756
2023-05-05T10:03:44.210Z,59.8470
2023-05-05T10:05:14.757Z,60.1959
2023-05-05T10:06:43.753Z,61.0257
2023-05-05T10:08:14.078Z,60.9539
2023-05-05T10:09:44.385Z,60.3825
2023-05-05T10:11:13.712Z,59.4636
2023-05-05T10:12:44.016Z,59.9552
2023-05-05T10:14:14.756Z,61.9271
2023-05-05T10:15:46.099Z,59.5712
2023-05-05T10:17:16.495Z,59.0939
2023-05-05T10:18:45.775Z,58.5760
2023-05-05T10:20:15.020Z,58.7383
2023-05-05T10:21:44.291Z,60.5701
2023-05-05T10:23:14.104Z,58.5338
2023-05-05T10:24:45.643Z,58.0644
2023-05-05T10:26:15.438Z,57.6767
2023-05-05T10:27:45.100Z,58.6206
2023-05-05T10:29:15.856Z,58.1715
2023-05-05T10:30:45.223Z,57.5278
2023-05-05T10:32:40.820Z,56.8586
2023-05-05T10:33:45.367Z,57.8600
2023-05-05T10:35:14.933Z,58.0345
2023-05-05T10:36:45.223Z,58.0223
2023-05-05T10:38:15.953Z,57.6108
2023-05-05T10:39:45.289Z,57.7300
2023-05-05T10:41:14.577Z,58.1242
2023-05-05T10:42:43.965Z,59.1530
2023-05-05T10:44:13.173Z,58.5694
2023-05-05T10:45:44.071Z,58.1386
2023-05-05T10:47:14.483Z,57.9745
2023-05-05T10:48:45.980Z,58.7951
2023-05-05T10:50:14.765Z,58.8446
2023-05-05T10:51:44.148Z,59.2198
2023-05-05T10:53:15.397Z,58.7574
2023-05-05T10:54:46.125Z,57.9369
2023-05-05T10:56:16.953Z,57.9149
2023-05-05T10:57:48.109Z,57.5280
2023-05-05T10:59:18.416Z,57.3416
2023-05-05T11:00:47.801Z,57.7889
2023-05-05T11:02:17.106Z,56.2251
2023-05-05T11:03:47.657Z,56.8648
2023-05-05T11:05:19.044Z,56.3552
2023-05-05T11:06:49.383Z,55.8803
2023-05-05T11:08:18.725Z,56.3030
2023-05-05T11:09:48.525Z,56.2645
2023-05-05T11:11:18.799Z,56.0732
2023-05-05T11:12:48.584Z,55.6761
2023-05-05T11:14:17.874Z,56.0672
2023-05-05T11:15:49.031Z,56.0044
2023-05-05T11:17:18.404Z,57.1043
2023-05-05T11:18:47.840Z,55.0820
2023-05-05T11:20:17.258Z,55.4683
2023-05-05T11:21:46.949Z,54.3866
2023-05-05T11:23:17.059Z,51.5469
2023-05-05T11:24:45.439Z,50.3335
2023-05-05T11:26:14.712Z,47.9541
2023-05-05T11:27:43.905Z,50.0014
2023-05-05T11:29:14.092Z,48.6766
2023-05-05T11:30:44.422Z,48.4273
2023-05-05T11:32:13.923Z,48.8777
2023-05-05T11:33:15.818Z,48.2164
2023-05-05T11:34:45.948Z,49.1922
2023-05-05T11:36:16.047Z,49.5498
2023-05-05T11:37:45.112Z,49.8147
2023-05-05T11:39:14.229Z,48.1286
2023-05-05T11:40:43.265Z,45.7421
2023-05-05T11:42:13.293Z,46.8483
2023-05-05T11:43:43.435Z,49.3350
2023-05-05T11:44:44.829Z,49.7908
2023-05-05T11:46:16.480Z,47.8192
2023-05-05T11:47:45.052Z,47.5781
2023-05-05T11:49:14.033Z,46.9681
2023-05-05T11:50:43.562Z,46.3166
2023-05-05T11:52:12.655Z,47.2540
2023-05-05T11:53:41.661Z,47.0112
2023-05-05T11:55:10.719Z,46.1986
2023-05-05T11:56:41.766Z,46.7545
2023-05-05T11:58:10.811Z,47.0538
2023-05-05T11:59:40.846Z,47.1914
2023-05-05T12:01:10.947Z,50.8237
2023-05-05T12:02:40.597Z,51.2233
2023-05-05T12:04:10.582Z,52.0571
2023-05-05T12:05:39.204Z,51.3514
2023-05-05T12:07:09.322Z,50.1157
2023-05-05T12:08:39.450Z,48.5669
2023-05-05T12:10:09.310Z,49.3424
2023-05-05T12:11:37.633Z,48.7389
2023-05-05T12:13:06.813Z,46.6834
2023-05-05T12:14:36.825Z,47.3991
2023-05-05T12:16:06.995Z,49.3138
2023-05-05T12:17:36.932Z,48.1076
2023-05-05T12:19:05.969Z,47.8938
2023-05-05T12:20:35.894Z,49.7380
2023-05-05T12:22:04.911Z,48.8278
2023-05-05T12:23:33.849Z,47.9335
2023-05-05T12:25:03.874Z,48.3994
2023-05-05T12:26:32.840Z,45.8356
2023-05-05T12:28:01.702Z,46.7145
2023-05-05T12:29:31.713Z,47.7089
2023-05-05T12:31:01.916Z,48.0758
2023-05-05T12:32:31.805Z,47.3030
2023-05-05T12:34:01.881Z,45.3914
2023-05-05T12:35:31.991Z,45.0202
2023-05-05T12:37:01.850Z,44.9993
2023-05-05T12:38:31.842Z,45.7910
2023-05-05T12:40:00.726Z,45.2566
2023-05-05T12:41:29.681Z,46.4775
2023-05-05T12:42:59.606Z,44.2804
2023-05-05T12:44:29.067Z,47.4377
2023-05-05T12:45:59.189Z,47.4410
2023-05-05T12:47:29.549Z,46.3879
2023-05-05T12:48:59.989Z,46.0121
2023-05-05T12:50:28.880Z,44.9615
2023-05-05T12:51:57.823Z,44.4397
2023-05-05T12:53:27.731Z,45.6746
2023-05-05T12:54:57.596Z,45.7214
2023-05-05T12:56:26.487Z,44.3555
2023-05-05T12:57:56.409Z,46.2368
2023-05-05T12:59:26.310Z,42.2931
2023-05-05T13:00:56.747Z,40.9725
2023-05-05T13:02:25.565Z,42.8685
2023-05-05T13:03:54.376Z,43.4157
2023-05-05T13:05:23.255Z,42.4375
2023-05-05T13:06:54.686Z,39.7665
2023-05-05T13:08:20.949Z,40.3482
2023-05-05T13:09:50.790Z,41.5242
2023-05-05T13:11:19.614Z,38.3900
2023-05-05T13:12:48.429Z,38.2843
2023-05-05T13:14:17.267Z,38.9386
2023-05-05T13:15:47.106Z,40.5279
2023-05-05T13:17:15.870Z,43.9070
2023-05-05T13:18:45.721Z,44.5813
2023-05-05T13:20:15.638Z,46.2186
2023-05-05T13:21:44.538Z,45.2404
2023-05-05T13:23:13.361Z,46.4904
2023-05-05T13:24:52.165Z,44.1531
2023-05-05T13:26:12.182Z,45.4081
2023-05-05T13:27:41.153Z,43.2196
2023-05-05T13:29:10.099Z,44.1899
2023-05-05T13:30:38.979Z,41.1380
2023-05-05T13:32:07.842Z,43.2174
2023-05-05T13:33:36.783Z,42.7383
2023-05-05T13:35:05.715Z,40.7163
2023-05-05T13:36:35.494Z,37.6281
2023-05-05T13:38:05.445Z,38.5815
2023-05-05T13:39:35.325Z,41.6584
2023-05-05T13:41:05.379Z,43.6224
2023-05-05T13:42:34.170Z,43.3838
2023-05-05T13:44:04.171Z,45.5749
2023-05-05T13:45:34.159Z,46.7067
2023-05-05T13:47:04.157Z,46.2250
2023-05-05T13:48:33.093Z,46.3867
2023-05-05T13:50:02.224Z,48.6740
2023-05-05T13:51:32.116Z,47.3179
2023-05-05T13:53:01.133Z,47.5231
2023-05-05T13:54:30.111Z,47.4389
2023-05-05T13:55:59.218Z,48.4059
2023-05-05T13:57:30.684Z,47.0921
2023-05-05T13:59:00.323Z,47.0123
2023-05-05T14:00:29.448Z,46.5388
2023-05-05T14:01:58.387Z,46.4101
2023-05-05T14:03:27.417Z,46.3280
2023-05-05T14:04:57.241Z,47.5752
2023-05-05T14:06:26.696Z,47.1122
2023-05-05T14:07:56.679Z,48.9620
2023-05-05T14:09:25.812Z,48.8540
2023-05-05T14:10:55.969Z,47.6796
2023-05-05T14:12:26.051Z,48.2742
2023-05-05T14:13:56.241Z,47.1837
2023-05-05T14:15:26.043Z,48.6795
2023-05-05T14:16:56.115Z,50.7298
2023-05-05T14:18:25.746Z,47.2747
2023-05-05T14:19:56.627Z,48.6737
2023-05-05T14:21:26.092Z,47.5358
2023-05-05T14:22:55.245Z,48.7898
2023-05-05T14:24:25.641Z,48.3112
2023-05-05T14:25:54.818Z,48.3388
2023-05-05T14:27:24.050Z,48.3374
2023-05-05T14:28:53.790Z,48.3740
2023-05-05T14:30:23.111Z,47.6893
2023-05-05T14:31:52.601Z,49.1123
2023-05-05T14:33:21.809Z,49.6901
2023-05-05T14:34:51.105Z,50.3128
2023-05-05T14:36:21.325Z,51.3534
2023-05-05T14:37:50.598Z,52.3970
2023-05-05T14:39:19.719Z,50.8723
2023-05-05T14:40:48.928Z,48.8946
2023-05-05T14:42:18.168Z,48.9515
2023-05-05T14:43:47.407Z,52.8175
2023-05-05T14:45:17.650Z,49.4251
2023-05-05T14:46:51.360Z,49.3348
2023-05-05T14:48:17.150Z,49.2359
2023-05-05T14:49:47.464Z,52.3277
2023-05-05T14:51:17.095Z,52.6521
2023-05-05T14:52:46.371Z,51.1815
2023-05-05T14:54:28.470Z,53.4090
2023-05-05T14:55:47.220Z,50.7915
2023-05-05T14:57:18.307Z,51.9143
2023-05-05T14:58:49.758Z,51.7449
2023-05-05T15:00:18.497Z,51.8980
2023-05-05T15:01:47.931Z,51.4794
2023-05-05T15:03:19.252Z,51.4896
2023-05-05T15:04:50.568Z,52.3792
2023-05-05T15:06:19.976Z,51.6366
2023-05-05T15:07:51.571Z,52.1312
2023-05-05T15:09:21.277Z,53.5731
2023-05-05T15:10:52.393Z,53.2740
2023-05-05T15:12:22.241Z,52.2923
2023-05-05T15:13:53.842Z,53.7574
2023-05-05T15:15:23.345Z,52.6162
2023-05-05T15:16:53.370Z,52.3799
2023-05-05T15:18:22.203Z,54.9308
2023-05-05T15:19:53.537Z,52.9255
2023-05-05T15:21:23.519Z,54.3167
2023-05-05T15:22:54.545Z,56.3910
2023-05-05T15:24:25.367Z,54.9522
2023-05-05T15:25:55.188Z,55.3117
2023-05-05T15:27:25.511Z,58.4087
2023-05-05T15:28:54.893Z,63.6075
2023-05-05T15:30:25.764Z,66.5713
2023-05-05T15:31:57.162Z,67.7773
2023-05-05T15:33:29.249Z,68.2098
2023-05-05T15:35:00.766Z,69.1527
2023-05-05T15:36:29.650Z,69.2614
2023-05-05T15:37:59.632Z,69.6656
2023-05-05T15:39:29.930Z,71.3330
2023-05-05T15:40:32.164Z,72.6709
2023-05-05T15:41:34.760Z,73.4431
2023-05-05T15:42:35.937Z,74.2742
2023-05-05T15:44:08.183Z,74.3120
2023-05-05T15:49:18.412Z,73.7147
2023-05-05T15:50:46.166Z,73.0419
2023-05-05T15:52:15.052Z,73.5748
2023-05-05T16:10:56.123Z,68.6009
2023-05-05T16:11:59.172Z,67.6588
2023-05-05T16:13:30.013Z,68.4693
2023-05-05T16:15:00.165Z,68.6213
2023-05-05T16:16:32.515Z,66.8729
2023-05-05T16:18:01.827Z,67.4433
2023-05-05T16:19:32.779Z,67.3855
2023-05-05T16:21:03.336Z,67.9561
2023-05-05T16:22:05.981Z,68.4065
2023-05-05T16:23:35.967Z,68.6692
2023-05-05T16:25:05.152Z,68.8578
2023-05-05T16:26:08.691Z,69.7442
2023-05-05T16:27:37.347Z,69.8518
2023-05-05T16:28:39.772Z,70.2908
2023-05-05T16:30:09.807Z,70.3265
2023-05-05T16:31:38.420Z,70.5845
2023-05-05T16:33:07.383Z,70.5722
2023-05-05T16:34:39.290Z,70.3069
2023-05-05T16:36:08.450Z,70.0032
2023-05-05T16:37:40.594Z,70.6266
2023-05-05T16:39:11.320Z,71.1285
2023-05-05T16:40:40.051Z,71.2440
2023-05-05T16:41:41.720Z,71.0157
2023-05-05T16:43:14.441Z,72.2385
2023-05-05T16:44:46.950Z,72.8948
2023-05-05T16:46:15.852Z,71.9070
2023-05-05T16:47:46.382Z,71.7000
2023-05-05T16:49:16.105Z,72.9979
2023-05-05T16:50:18.952Z,72.4187
2023-05-05T16:51:48.561Z,73.4521
2023-05-05T16:52:49.575Z,73.1309
2023-05-05T16:53:51.913Z,73.0328
2023-05-05T16:55:23.502Z,74.2359
2023-05-05T16:56:57.227Z,73.8936
2023-05-05T16:58:24.432Z,73.3733
2023-05-05T16:59:54.499Z,73.9264
2023-05-05T17:01:25.974Z,74.1283
2023-05-05T17:02:57.325Z,74.2686
2023-05-05T17:04:28.016Z,74.3863
2023-05-05T17:05:58.941Z,75.0836
2023-05-05T17:07:02.490Z,74.7495
2023-05-05T17:08:34.004Z,74.9184
2023-05-05T17:09:35.908Z,74.8133
2023-05-05T17:11:05.600Z,75.1016
2023-05-05T17:12:08.702Z,74.5320
2023-05-05T17:13:09.054Z,74.5549
2023-05-05T17:14:13.407Z,75.0249
2023-05-05T17:27:38.522Z,74.3669
2023-05-05T17:28:38.529Z,73.9971
2023-05-05T17:31:10.638Z,74.3417
2023-05-05T17:41:30.984Z,73.2972
2023-05-05T17:45:08.537Z,73.4216
2023-05-05T17:52:55.631Z,74.2682
2023-05-05T17:57:32.888Z,76.0815
